createdAt,value
2018-07-12T00:00:49.806Z,101662.45
2018-07-12T00:03:16.353Z,101665.25
2018-07-12T00:05:42.606Z,101659.75
2018-07-12T00:08:08.860Z,101660.11
2018-07-12T00:10:35.116Z,101668.75
2018-07-12T00:13:01.343Z,101659.42
2018-07-12T00:15:27.564Z,101664.10
2018-07-12T00:17:53.809Z,101660.62
2018-07-12T00:20:20.047Z,101656.39
2018-07-12T00:22:46.638Z,101654.20
2018-07-12T00:25:13.136Z,101656.92
2018-07-12T00:27:39.407Z,101658.42
2018-07-12T00:30:05.683Z,101660.66
2018-07-12T00:32:31.936Z,101657.77
2018-07-12T00:34:58.161Z,101657.48
2018-07-12T00:37:24.493Z,101652.05
2018-07-12T00:39:51.301Z,101654.09
2018-07-12T00:42:17.553Z,101649.69
2018-07-12T00:44:43.982Z,101653.56
2018-07-12T00:47:10.279Z,101651.19
2018-07-12T00:49:36.597Z,101652.03
2018-07-12T00:52:03.214Z,101650.40
2018-07-12T00:54:29.439Z,101647.01
2018-07-12T00:56:55.660Z,101647.65
2018-07-12T00:59:21.977Z,101651.57
2018-07-12T01:01:48.349Z,101647.19
2018-07-12T01:04:14.659Z,101646.12
2018-07-12T01:06:41.082Z,101652.05
2018-07-12T01:09:07.294Z,101652.92
2018-07-12T01:11:34.797Z,101652.07
2018-07-12T01:14:01.170Z,101652.42
2018-07-12T01:16:27.409Z,101654.94
2018-07-12T01:18:53.848Z,101659.84
2018-07-12T01:21:20.128Z,101649.19
2018-07-12T01:23:46.973Z,101652.91
2018-07-12T01:26:13.251Z,101660.84
2018-07-12T01:28:39.471Z,101651.91
2018-07-12T01:31:06.412Z,101651.78
2018-07-12T01:33:32.865Z,101656.16
2018-07-12T01:35:59.108Z,101655.33
2018-07-12T01:38:25.704Z,101653.62
2018-07-12T01:40:52.034Z,101657.52
2018-07-12T01:43:18.318Z,101654.71
2018-07-12T01:45:44.571Z,101645.24
2018-07-12T01:48:10.901Z,101649.47
2018-07-12T01:50:37.146Z,101649.00
2018-07-12T01:53:03.436Z,101647.50
2018-07-12T01:55:29.712Z,101647.18
2018-07-12T01:57:56.025Z,101649.17
2018-07-12T02:00:22.353Z,101641.92
2018-07-12T02:02:48.698Z,101650.21
2018-07-12T02:05:15.253Z,101647.69
2018-07-12T02:07:41.451Z,101640.61
2018-07-12T02:10:07.663Z,101643.84
2018-07-12T02:12:33.881Z,101644.50
2018-07-12T02:15:00.094Z,101633.73
2018-07-12T02:17:26.425Z,101643.99
2018-07-12T02:19:52.710Z,101642.16
2018-07-12T02:22:18.912Z,101643.84
2018-07-12T02:24:45.125Z,101642.34
2018-07-12T02:27:11.366Z,101640.98
2018-07-12T02:29:37.569Z,101650.65
2018-07-12T02:32:03.760Z,101649.30
2018-07-12T02:34:29.985Z,101650.48
2018-07-12T02:36:56.320Z,101649.98
2018-07-12T02:39:22.629Z,101647.96
2018-07-12T02:41:48.949Z,101645.77
2018-07-12T02:44:15.213Z,101646.95
2018-07-12T02:46:41.419Z,101654.05
2018-07-12T02:49:07.623Z,101640.70
2018-07-12T02:51:33.886Z,101646.27
2018-07-12T02:54:00.135Z,101649.65
2018-07-12T02:56:26.345Z,101644.76
2018-07-12T02:58:52.614Z,101645.12
2018-07-12T03:01:18.895Z,101650.34
2018-07-12T03:03:45.144Z,101643.78
2018-07-12T03:06:11.353Z,101636.34
2018-07-12T03:08:37.593Z,101632.50
2018-07-12T03:11:03.878Z,101635.87
2018-07-12T03:13:30.119Z,101641.59
2018-07-12T03:15:56.502Z,101642.77
2018-07-12T03:18:22.740Z,101644.64
2018-07-12T03:20:48.979Z,101644.63
2018-07-12T03:23:15.208Z,101647.33
2018-07-12T03:25:41.403Z,101652.91
2018-07-12T03:28:07.652Z,101650.55
2018-07-12T03:30:33.935Z,101653.92
2018-07-12T03:33:00.792Z,101650.91
2018-07-12T03:35:27.018Z,101660.84
2018-07-12T03:37:53.240Z,101659.81
2018-07-12T03:40:19.473Z,101664.02
2018-07-12T03:42:45.681Z,101660.31
2018-07-12T03:45:11.905Z,101655.42
2018-07-12T03:47:38.180Z,101657.29
2018-07-12T03:50:04.400Z,101655.93
2018-07-12T03:52:30.633Z,101657.61
2018-07-12T03:54:56.878Z,101664.18
2018-07-12T03:57:23.187Z,101663.84
2018-07-12T03:59:49.407Z,101650.05
2018-07-12T04:02:15.661Z,101654.08
2018-07-12T04:04:41.910Z,101656.27
2018-07-12T04:07:08.145Z,101656.93
2018-07-12T04:09:34.459Z,101652.72
2018-07-12T04:12:00.715Z,101662.16
2018-07-12T04:14:26.915Z,101658.77
2018-07-12T04:16:53.122Z,101660.64
2018-07-12T04:19:19.335Z,101655.55
2018-07-12T04:21:45.574Z,101663.14
2018-07-12T04:24:11.789Z,101663.31
2018-07-12T04:26:38.008Z,101664.82
2018-07-12T04:29:04.244Z,101657.92
2018-07-12T04:31:30.453Z,101655.33
2018-07-12T04:33:56.680Z,101656.00
2018-07-12T04:36:22.941Z,101664.94
2018-07-12T04:38:49.181Z,101660.09
2018-07-12T04:41:16.087Z,101660.03
2018-07-12T04:43:42.346Z,101666.09
2018-07-12T04:46:08.589Z,101670.13
2018-07-12T04:48:34.833Z,101666.09
2018-07-12T04:51:01.154Z,101669.97
2018-07-12T04:53:27.360Z,101662.87
2018-07-12T04:55:53.673Z,101658.61
2018-07-12T04:58:20.092Z,101658.27
2018-07-12T05:00:46.220Z,101668.73
2018-07-12T05:03:12.525Z,101660.13
2018-07-12T05:05:38.737Z,101657.00
2018-07-12T05:08:04.998Z,101661.11
2018-07-12T05:10:31.613Z,101651.33
2018-07-12T05:12:57.845Z,101660.39
2018-07-12T05:15:24.697Z,101661.37
2018-07-12T05:17:50.944Z,101661.70
2018-07-12T05:20:17.265Z,101653.62
2018-07-12T05:22:43.516Z,101668.95
2018-07-12T05:25:09.771Z,101671.65
2018-07-12T05:27:36.065Z,101670.34
2018-07-12T05:30:02.366Z,101673.28
2018-07-12T05:32:28.662Z,101669.08
2018-07-12T05:34:55.052Z,101674.55
2018-07-12T05:37:22.333Z,101677.50
2018-07-12T05:39:50.021Z,101679.48
2018-07-12T05:42:17.284Z,101679.61
2018-07-12T05:44:44.527Z,101677.02
2018-07-12T05:47:11.779Z,101681.03
2018-07-12T05:49:39.123Z,101683.54
2018-07-12T05:52:06.514Z,101684.77
2018-07-12T05:54:33.867Z,101686.89
2018-07-12T05:57:01.204Z,101685.50
2018-07-12T05:59:28.555Z,101685.22
2018-07-12T06:02:07.065Z,101691.59
2018-07-12T06:04:35.234Z,101696.30
2018-07-12T06:07:02.636Z,101693.80
2018-07-12T06:09:29.945Z,101700.12
2018-07-12T06:11:57.224Z,101699.78
2018-07-12T06:14:24.495Z,101694.20
2018-07-12T06:16:51.774Z,101704.17
2018-07-12T06:19:19.262Z,101702.56
2018-07-12T06:21:46.617Z,101705.81
2018-07-12T06:24:13.969Z,101704.65
2018-07-12T06:26:41.293Z,101706.94
2018-07-12T06:29:08.601Z,101709.03
2018-07-12T06:31:35.829Z,101720.39
2018-07-12T06:34:03.251Z,101716.41
2018-07-12T06:36:30.552Z,101725.72
2018-07-12T06:38:57.934Z,101729.11
2018-07-12T06:41:25.358Z,101730.62
2018-07-12T06:43:52.647Z,101733.20
2018-07-12T06:46:19.952Z,101740.36
2018-07-12T06:48:47.310Z,101739.84
2018-07-12T06:51:14.823Z,101731.77
2018-07-12T06:53:42.207Z,101735.84
2018-07-12T06:56:09.614Z,101739.77
2018-07-12T06:58:36.913Z,101738.83
2018-07-12T07:01:04.362Z,101742.33
2018-07-12T07:03:31.748Z,101743.57
2018-07-12T07:05:59.276Z,101753.47
2018-07-12T07:08:26.928Z,101752.19
2018-07-12T07:10:54.193Z,101754.98
2018-07-12T07:13:21.547Z,101758.15
2018-07-12T07:15:49.248Z,101758.01
2018-07-12T07:18:17.770Z,101759.42
2018-07-12T07:20:45.881Z,101759.58
2018-07-12T07:23:13.297Z,101755.28
2018-07-12T07:25:40.738Z,101759.06
2018-07-12T07:28:08.345Z,101758.70
2018-07-12T07:30:35.868Z,101766.95
2018-07-12T07:33:03.183Z,101764.80
2018-07-12T07:35:30.673Z,101766.84
2018-07-12T07:37:58.021Z,101763.27
2018-07-12T07:40:25.406Z,101773.27
2018-07-12T07:42:52.731Z,101781.09
2018-07-12T07:45:19.983Z,101772.30
2018-07-12T07:47:47.253Z,101774.05
2018-07-12T07:50:14.613Z,101778.69
2018-07-12T07:52:41.927Z,101785.16
2018-07-12T07:55:09.200Z,101781.73
2018-07-12T07:57:36.474Z,101780.23
2018-07-12T08:00:04.180Z,101783.22
2018-07-12T08:02:32.104Z,101806.86
2018-07-12T08:04:59.459Z,101790.63
2018-07-12T08:07:26.721Z,101790.61
2018-07-12T08:09:53.998Z,101793.53
2018-07-12T08:12:21.305Z,101789.91
2018-07-12T08:14:48.638Z,101790.39
2018-07-12T08:17:15.924Z,101785.25
2018-07-12T08:19:43.513Z,101788.53
2018-07-12T08:22:10.897Z,101784.92
2018-07-12T08:24:39.171Z,101791.06
2018-07-12T08:27:06.653Z,101790.93
2018-07-12T08:29:34.127Z,101794.73
2018-07-12T08:32:02.621Z,101796.88
2018-07-12T08:34:29.880Z,101796.55
2018-07-12T08:36:57.260Z,101794.28
2018-07-12T08:39:24.651Z,101799.23
2018-07-12T08:41:52.266Z,101802.80
2018-07-12T08:44:19.888Z,101797.81
2018-07-12T08:46:47.356Z,101815.70
2018-07-12T08:49:15.634Z,101789.27
2018-07-12T08:51:42.927Z,101797.98
2018-07-12T08:54:10.234Z,101801.82
2018-07-12T08:56:37.503Z,101798.41
2018-07-12T08:59:04.785Z,101798.00
2018-07-12T09:01:32.094Z,101803.44
2018-07-12T09:03:59.444Z,101801.66
2018-07-12T09:06:26.822Z,101802.40
2018-07-12T09:08:54.238Z,101801.41
2018-07-12T09:11:21.532Z,101794.20
2018-07-12T09:13:48.830Z,101807.96
2018-07-12T09:16:16.220Z,101798.52
2018-07-12T09:18:44.196Z,101801.45
2018-07-12T09:21:11.668Z,101801.57
2018-07-12T09:23:39.125Z,101797.27
2018-07-12T09:28:33.292Z,101797.14
2018-07-12T09:31:00.694Z,101794.66
2018-07-12T09:33:28.010Z,101794.28
2018-07-12T09:35:55.287Z,101802.34
2018-07-12T09:38:34.833Z,101802.28
2018-07-12T09:41:02.245Z,101803.87
2018-07-12T09:43:29.876Z,101798.72
2018-07-12T09:45:57.229Z,101794.83
2018-07-12T09:48:24.752Z,101805.74
2018-07-12T09:50:52.169Z,101794.78
2018-07-12T09:53:19.417Z,101811.34
2018-07-12T09:55:46.819Z,101824.67
2018-07-12T09:58:26.398Z,101811.77
2018-07-12T10:00:59.339Z,101835.16
2018-07-12T10:03:32.349Z,101866.58
2018-07-12T10:05:59.808Z,101862.73
2018-07-12T10:08:32.669Z,101873.06
2018-07-12T10:11:05.526Z,101877.98
2018-07-12T10:13:38.250Z,101869.47
2018-07-12T10:16:11.394Z,101877.02
2018-07-12T10:18:38.781Z,101897.90
2018-07-12T10:21:06.154Z,101884.06
2018-07-12T10:23:33.409Z,101890.31
2018-07-12T10:26:01.362Z,101896.92
2018-07-12T10:28:28.755Z,101852.33
2018-07-12T10:30:56.176Z,101861.38
2018-07-12T10:33:23.435Z,101831.73
2018-07-12T10:35:50.714Z,101857.30
2018-07-12T10:38:18.332Z,101847.89
2018-07-12T10:40:46.837Z,101852.49
2018-07-12T10:43:14.255Z,101852.19
2018-07-12T10:45:42.090Z,101857.09
2018-07-12T10:48:09.446Z,101855.27
2018-07-12T10:50:36.796Z,101850.80
2018-07-12T10:53:04.216Z,101840.84
2018-07-12T10:55:31.442Z,101842.19
2018-07-12T10:57:58.977Z,101817.76
2018-07-12T11:00:26.396Z,101815.45
2018-07-12T11:02:53.951Z,101826.87
2018-07-12T11:05:21.366Z,101812.91
2018-07-12T11:07:48.942Z,101813.22
2018-07-12T11:10:16.198Z,101826.23
2018-07-12T11:12:43.453Z,101820.06
2018-07-12T11:15:10.771Z,101827.17
2018-07-12T11:17:38.787Z,101830.66
2018-07-12T11:22:40.042Z,101819.48
2018-07-12T11:25:07.331Z,101821.20
2018-07-12T11:27:34.616Z,101821.13
2018-07-12T11:30:01.945Z,101817.77
2018-07-12T11:32:29.700Z,101814.56
2018-07-12T11:34:57.112Z,101823.13
2018-07-12T11:37:25.524Z,101813.34
2018-07-12T11:39:52.825Z,101816.52
2018-07-12T11:42:20.130Z,101821.53
2018-07-12T11:44:47.954Z,101818.33
2018-07-12T11:47:15.250Z,101815.41
2018-07-12T11:49:42.552Z,101820.14
2018-07-12T11:52:10.054Z,101809.92
2018-07-12T11:54:37.547Z,101808.71
2018-07-12T11:57:04.839Z,101805.37
2018-07-12T11:59:32.116Z,101808.59
2018-07-12T12:01:59.398Z,101812.33
2018-07-12T12:04:26.663Z,101803.95
2018-07-12T12:06:53.919Z,101803.66
2018-07-12T12:09:21.257Z,101801.98
2018-07-12T12:11:48.526Z,101795.26
2018-07-12T12:14:15.790Z,101795.52
2018-07-12T12:16:43.065Z,101798.36
2018-07-12T12:19:10.340Z,101801.14
2018-07-12T12:21:37.744Z,101797.17
2018-07-12T12:24:05.150Z,101797.16
2018-07-12T12:26:32.448Z,101801.04
2018-07-12T12:28:59.777Z,101802.80
2018-07-12T12:31:27.751Z,101801.66
2018-07-12T12:33:55.159Z,101798.38
2018-07-12T12:36:22.746Z,101803.55
2018-07-12T12:38:50.788Z,101798.77
2018-07-12T12:41:18.375Z,101800.53
2018-07-12T12:43:45.781Z,101799.57
2018-07-12T12:46:13.282Z,101803.40
2018-07-12T12:48:40.582Z,101808.31
2018-07-12T12:51:07.819Z,101799.97
2018-07-12T12:53:35.172Z,101799.44
2018-07-12T12:56:02.522Z,101798.14
2018-07-12T12:58:30.313Z,101800.58
2018-07-12T13:00:58.237Z,101794.02
2018-07-12T13:03:25.760Z,101805.89
2018-07-12T13:05:53.098Z,101791.09
2018-07-12T13:08:20.327Z,101806.36
2018-07-12T13:10:47.817Z,101801.25
2018-07-12T13:13:15.157Z,101795.58
2018-07-12T13:15:42.441Z,101801.05
2018-07-12T13:18:09.733Z,101801.07
2018-07-12T13:20:37.060Z,101792.13
2018-07-12T13:23:04.412Z,101795.86
2018-07-12T13:25:31.724Z,101800.52
2018-07-12T13:27:59.049Z,101806.35
2018-07-12T13:30:33.003Z,101803.87
2018-07-12T13:33:00.345Z,101803.78
2018-07-12T13:35:27.720Z,101801.66
2018-07-12T13:37:55.057Z,101803.78
2018-07-12T13:40:22.351Z,101804.09
2018-07-12T13:42:49.622Z,101811.74
2018-07-12T13:45:16.945Z,101801.19
2018-07-12T13:47:44.285Z,101810.35
2018-07-12T13:50:11.573Z,101810.34
2018-07-12T13:52:38.848Z,101806.30
2018-07-12T13:55:06.233Z,101798.53
2018-07-12T13:57:33.659Z,101809.53
2018-07-12T14:00:00.915Z,101799.41
2018-07-12T14:02:28.688Z,101801.56
2018-07-12T14:04:56.226Z,101803.91
2018-07-12T14:07:23.598Z,101807.66
2018-07-12T14:09:50.957Z,101803.89
2018-07-12T14:12:18.255Z,101802.52
2018-07-12T14:14:45.515Z,101800.34
2018-07-12T14:17:12.822Z,101799.20
2018-07-12T14:19:40.136Z,101800.84
2018-07-12T14:22:07.387Z,101801.53
2018-07-12T14:24:34.607Z,101797.38
2018-07-12T14:27:02.137Z,101787.54
2018-07-12T14:29:29.481Z,101783.59
2018-07-12T14:31:56.821Z,101788.14
2018-07-12T14:34:24.113Z,101794.45
2018-07-12T14:36:51.511Z,101782.91
2018-07-12T14:39:18.849Z,101792.30
2018-07-12T14:41:46.260Z,101784.81
2018-07-12T14:44:13.716Z,101778.55
2018-07-12T14:46:41.075Z,101780.99
2018-07-12T14:49:08.319Z,101782.67
2018-07-12T14:51:36.379Z,101782.13
2018-07-12T14:54:03.718Z,101781.78
2018-07-12T14:56:31.030Z,101777.07
2018-07-12T14:58:58.294Z,101775.82
2018-07-12T15:01:25.757Z,101778.40
2018-07-12T15:03:53.064Z,101774.45
2018-07-12T15:06:20.391Z,101777.27
2018-07-12T15:08:47.759Z,101777.58
2018-07-12T15:11:15.188Z,101772.80
2018-07-12T15:13:42.535Z,101777.66
2018-07-12T15:16:10.615Z,101778.92
2018-07-12T15:18:38.081Z,101777.35
2018-07-12T15:21:05.612Z,101773.55
2018-07-12T15:23:32.985Z,101771.58
2018-07-12T15:26:00.486Z,101767.85
2018-07-12T15:28:27.723Z,101771.02
2018-07-12T15:30:55.209Z,101769.20
2018-07-12T15:33:22.599Z,101775.80
2018-07-12T15:35:49.909Z,101772.98
2018-07-12T15:38:17.278Z,101776.56
2018-07-12T15:40:44.563Z,101770.75
2018-07-12T15:43:11.967Z,101775.45
2018-07-12T15:45:39.385Z,101777.79
2018-07-12T15:48:06.721Z,101773.34
2018-07-12T15:50:34.022Z,101777.09
2018-07-12T15:53:01.376Z,101780.52
2018-07-12T15:55:28.937Z,101775.19
2018-07-12T15:57:56.486Z,101775.27
2018-07-12T16:00:24.168Z,101772.01
2018-07-12T16:02:51.483Z,101775.79
2018-07-12T16:05:18.936Z,101772.22
2018-07-12T16:07:46.442Z,101773.67
2018-07-12T16:10:13.856Z,101767.52
2018-07-12T16:12:41.217Z,101766.64
2018-07-12T16:15:09.155Z,101774.31
2018-07-12T16:17:36.519Z,101773.38
2018-07-12T16:20:04.531Z,101776.06
2018-07-12T16:22:32.041Z,101772.85
2018-07-12T16:24:59.425Z,101768.73
2018-07-12T16:27:26.752Z,101767.80
2018-07-12T16:29:54.131Z,101764.84
2018-07-12T16:32:21.445Z,101766.96
2018-07-12T16:34:48.807Z,101767.72
2018-07-12T16:37:16.342Z,101763.55
2018-07-12T16:39:43.760Z,101764.52
2018-07-12T16:42:11.150Z,101770.06
2018-07-12T16:44:38.615Z,101765.98
2018-07-12T16:47:06.205Z,101757.89
2018-07-12T16:49:33.681Z,101762.47
2018-07-12T16:52:01.159Z,101761.28
2018-07-12T16:54:28.818Z,101764.81
2018-07-12T16:56:56.180Z,101762.37
2018-07-12T16:59:23.608Z,101765.14
2018-07-12T17:01:51.004Z,101775.05
2018-07-12T17:04:18.352Z,101773.95
2018-07-12T17:06:45.790Z,101777.01
2018-07-12T17:09:13.117Z,101776.25
2018-07-12T17:11:40.486Z,101777.58
2018-07-12T17:14:07.813Z,101781.96
2018-07-12T17:16:35.172Z,101780.38
2018-07-12T17:19:02.554Z,101781.03
2018-07-12T17:21:29.898Z,101789.08
2018-07-12T17:23:57.237Z,101789.65
2018-07-12T17:26:24.794Z,101782.94
2018-07-12T17:28:52.539Z,101785.13
2018-07-12T17:31:19.896Z,101792.74
2018-07-12T17:33:47.897Z,101786.20
2018-07-12T17:36:15.499Z,101780.91
2018-07-12T17:38:42.977Z,101786.41
2018-07-12T17:41:10.444Z,101792.87
2018-07-12T17:43:37.756Z,101787.77
2018-07-12T17:46:05.118Z,101795.49
2018-07-12T17:48:32.498Z,101797.13
2018-07-12T17:50:59.900Z,101790.80
2018-07-12T17:53:27.218Z,101792.03
2018-07-12T17:55:54.518Z,101787.11
2018-07-12T17:58:22.577Z,101787.64
2018-07-12T18:00:50.057Z,101795.32
2018-07-12T18:03:17.583Z,101792.16
2018-07-12T18:05:44.917Z,101799.94
2018-07-12T18:08:12.465Z,101789.63
2018-07-12T18:10:39.855Z,101796.61
2018-07-12T18:13:07.251Z,101795.55
2018-07-12T18:15:35.270Z,101796.77
2018-07-12T18:18:02.779Z,101794.33
2018-07-12T18:20:30.124Z,101798.70
2018-07-12T18:22:57.581Z,101794.91
2018-07-12T18:25:25.102Z,101797.72
2018-07-12T18:27:52.652Z,101797.99
2018-07-12T18:30:20.214Z,101798.61
2018-07-12T18:32:47.711Z,101803.60
2018-07-12T18:35:15.183Z,101799.41
2018-07-12T18:37:42.537Z,101795.20
2018-07-12T18:40:10.185Z,101802.02
2018-07-12T18:42:37.493Z,101798.75
2018-07-12T18:45:04.742Z,101804.36
2018-07-12T18:47:32.036Z,101804.98
2018-07-12T18:49:59.442Z,101808.06
2018-07-12T18:52:26.782Z,101805.46
2018-07-12T18:54:54.081Z,101801.91
2018-07-12T18:57:21.918Z,101811.09
2018-07-12T18:59:49.597Z,101804.91
2018-07-12T19:02:17.007Z,101799.45
2018-07-12T19:04:44.828Z,101805.67
2018-07-12T19:07:12.317Z,101806.44
2018-07-12T19:09:39.644Z,101799.56
2018-07-12T19:12:07.097Z,101807.55
2018-07-12T19:14:34.433Z,101803.17
2018-07-12T19:17:01.785Z,101804.07
2018-07-12T19:19:29.242Z,101806.92
2018-07-12T19:21:56.569Z,101806.95
2018-07-12T19:24:24.006Z,101811.09
2018-07-12T19:26:51.530Z,101815.49
2018-07-12T19:29:18.956Z,101812.55
2018-07-12T19:31:46.689Z,101814.28
2018-07-12T19:34:14.035Z,101812.02
2018-07-12T19:36:41.369Z,101819.45
2018-07-12T19:39:08.982Z,101819.59
2018-07-12T19:41:36.533Z,101824.06
2018-07-12T19:44:03.927Z,101823.44
2018-07-12T19:46:31.661Z,101826.96
2018-07-12T19:48:59.046Z,101826.81
2018-07-12T19:51:26.329Z,101824.28
2018-07-12T19:53:53.807Z,101821.86
2018-07-12T19:56:21.270Z,101827.67
2018-07-12T19:58:48.542Z,101828.14
2018-07-12T20:01:15.839Z,101831.57
2018-07-12T20:03:43.252Z,101837.00
2018-07-12T20:06:10.453Z,101835.78
2018-07-12T20:08:37.710Z,101835.14
2018-07-12T20:11:04.973Z,101832.88
2018-07-12T20:13:32.834Z,101843.33
2018-07-12T20:16:00.086Z,101846.55
2018-07-12T20:18:27.389Z,101849.05
2018-07-12T20:20:54.710Z,101848.26
2018-07-12T20:23:22.083Z,101854.50
2018-07-12T20:25:49.378Z,101858.70
2018-07-12T20:28:16.857Z,101852.95
2018-07-12T20:30:44.485Z,101852.47
2018-07-12T20:33:12.473Z,101858.99
2018-07-12T20:35:39.721Z,101851.34
2018-07-12T20:38:06.981Z,101859.78
2018-07-12T20:40:34.689Z,101856.63
2018-07-12T20:43:02.022Z,101855.10
2018-07-12T20:45:29.236Z,101854.75
2018-07-12T20:47:56.498Z,101854.62
2018-07-12T20:50:23.764Z,101856.61
2018-07-12T20:52:50.981Z,101864.05
2018-07-12T20:55:18.257Z,101860.33
2018-07-12T20:57:45.582Z,101862.39
2018-07-12T21:00:12.801Z,101855.95
2018-07-12T21:02:40.170Z,101863.22
2018-07-12T21:05:07.381Z,101857.30
2018-07-12T21:07:34.705Z,101863.23
2018-07-12T21:10:01.975Z,101861.88
2018-07-12T21:12:29.683Z,101859.85
2018-07-12T21:14:57.005Z,101847.59
2018-07-12T21:17:24.246Z,101857.70
2018-07-12T21:19:51.561Z,101862.72
2018-07-12T21:22:18.878Z,101866.10
2018-07-12T21:24:46.172Z,101862.88
2018-07-12T21:27:13.446Z,101863.61
2018-07-12T21:29:40.677Z,101870.98
2018-07-12T21:32:07.925Z,101873.58
2018-07-12T21:34:35.403Z,101856.37
2018-07-12T21:37:02.770Z,101870.83
2018-07-12T21:39:30.160Z,101871.56
2018-07-12T21:41:57.529Z,101871.38
2018-07-12T21:44:24.819Z,101869.53
2018-07-12T21:46:52.026Z,101866.31
2018-07-12T21:49:19.259Z,101870.53
2018-07-12T21:51:47.291Z,101862.78
2018-07-12T21:54:14.475Z,101864.81
2018-07-12T21:56:41.701Z,101870.87
2018-07-12T21:59:09.010Z,101867.69
2018-07-12T22:01:36.406Z,101867.34
2018-07-12T22:04:03.760Z,101863.45
2018-07-12T22:08:42.702Z,101867.68
2018-07-12T22:11:10.079Z,101871.55
2018-07-12T22:13:37.714Z,101875.27
2018-07-12T22:16:05.084Z,101866.84
2018-07-12T22:18:32.362Z,101868.86
2018-07-12T22:20:59.679Z,101879.32
2018-07-12T22:23:26.886Z,101859.96
2018-07-12T22:25:54.130Z,101876.33
2018-07-12T22:28:21.778Z,101879.87
2018-07-12T22:30:49.136Z,101874.13
2018-07-12T22:33:16.373Z,101877.00
2018-07-12T22:35:43.741Z,101880.17
2018-07-12T22:38:11.328Z,101872.58
2018-07-12T22:40:38.722Z,101875.45
2018-07-12T22:43:06.689Z,101880.70
2018-07-12T22:45:34.051Z,101869.71
2018-07-12T22:48:01.716Z,101878.31
2018-07-12T22:50:29.185Z,101870.25
2018-07-12T22:52:56.496Z,101872.95
2018-07-12T22:55:23.796Z,101868.56
2018-07-12T22:57:51.053Z,101867.89
2018-07-12T23:00:18.484Z,101871.06
2018-07-12T23:02:45.769Z,101872.23
2018-07-12T23:05:13.362Z,101873.08
2018-07-12T23:07:40.695Z,101876.12
2018-07-12T23:10:07.952Z,101881.34
2018-07-12T23:12:35.157Z,101881.00
2018-07-12T23:15:03.017Z,101879.98
2018-07-12T23:17:30.268Z,101877.13
2018-07-12T23:19:57.582Z,101871.39
2018-07-12T23:22:24.981Z,101870.22
2018-07-12T23:24:52.630Z,101860.93
2018-07-12T23:27:19.870Z,101871.71
2018-07-12T23:29:47.429Z,101868.50
2018-07-12T23:32:14.785Z,101874.58
2018-07-12T23:34:42.137Z,101868.13
2018-07-12T23:37:09.394Z,101867.45
2018-07-12T23:39:37.053Z,101869.84
2018-07-12T23:42:04.619Z,101865.09
2018-07-12T23:44:32.131Z,101878.58
2018-07-12T23:46:59.415Z,101868.28
2018-07-12T23:49:26.704Z,101866.75
2018-07-12T23:51:53.967Z,101870.13
2018-07-12T23:54:21.914Z,101869.19
2018-07-12T23:56:49.524Z,101875.75
2018-07-12T23:59:17.237Z,101864.45
